createdAt,value
2022-12-18T00:01:16.349Z,32.70
2022-12-18T00:03:44.020Z,27.80
2022-12-18T00:06:14.668Z,30.48
2022-12-18T00:08:42.689Z,28.55
2022-12-18T00:11:12.049Z,27.10
2022-12-18T00:13:40.949Z,29.20
2022-12-18T00:16:10.333Z,29.13
2022-12-18T00:18:38.257Z,26.55
2022-12-18T00:21:08.700Z,26.35
2022-12-18T00:23:43.222Z,26.05
2022-12-18T00:26:19.557Z,26.33
2022-12-18T00:28:47.117Z,27.17
2022-12-18T00:31:16.212Z,28.38
2022-12-18T00:33:43.707Z,27.05
2022-12-18T00:36:12.493Z,28.83
2022-12-18T00:38:39.728Z,26.85
2022-12-18T00:41:08.663Z,26.52
2022-12-18T00:43:36.267Z,28.25
2022-12-18T00:46:03.707Z,23.80
2022-12-18T00:48:31.180Z,27.85
2022-12-18T00:50:58.557Z,25.33
2022-12-18T00:53:25.890Z,24.23
2022-12-18T00:55:52.976Z,26.15
2022-12-18T00:58:21.239Z,30.13
2022-12-18T01:00:48.623Z,39.58
2022-12-18T01:03:16.189Z,27.15
2022-12-18T01:05:45.345Z,26.33
2022-12-18T01:08:12.573Z,25.92
2022-12-18T01:10:42.626Z,25.13
2022-12-18T01:13:10.248Z,28.23
2022-12-18T01:15:37.511Z,28.05
2022-12-18T01:18:04.777Z,28.10
2022-12-18T01:20:32.073Z,28.35
2022-12-18T01:22:59.235Z,21.23
2022-12-18T01:25:26.513Z,26.33
2022-12-18T01:27:54.049Z,24.92
2022-12-18T01:30:21.227Z,25.83
2022-12-18T01:32:48.639Z,24.35
2022-12-18T01:35:16.087Z,25.20
2022-12-18T01:37:43.318Z,21.38
2022-12-18T01:40:10.923Z,24.30
2022-12-18T01:42:38.495Z,26.80
2022-12-18T01:45:05.770Z,22.77
2022-12-18T01:47:40.811Z,23.33
2022-12-18T01:50:14.217Z,24.70
2022-12-18T01:52:42.753Z,26.08
2022-12-18T01:55:10.948Z,25.83
2022-12-18T01:57:38.988Z,29.17
2022-12-18T02:00:09.247Z,24.20
2022-12-18T02:02:37.810Z,25.42
2022-12-18T02:05:06.045Z,25.55
2022-12-18T02:07:39.355Z,24.85
2022-12-18T02:10:15.327Z,22.88
2022-12-18T02:13:08.480Z,23.25
2022-12-18T02:15:52.917Z,21.38
2022-12-18T02:18:21.871Z,21.77
2022-12-18T02:20:50.616Z,22.42
2022-12-18T02:23:20.749Z,21.88
2022-12-18T02:25:54.204Z,22.05
2022-12-18T02:28:22.890Z,22.80
2022-12-18T02:30:52.905Z,22.85
2022-12-18T02:33:22.672Z,23.15
2022-12-18T02:35:50.750Z,19.00
2022-12-18T02:38:18.511Z,22.45
2022-12-18T02:40:46.152Z,22.27
2022-12-18T02:43:14.893Z,21.58
2022-12-18T02:46:08.674Z,22.05
2022-12-18T02:48:36.710Z,20.05
2022-12-18T02:51:13.177Z,22.02
2022-12-18T02:53:45.608Z,21.33
2022-12-18T02:56:18.960Z,21.20
2022-12-18T02:58:46.022Z,24.30
2022-12-18T03:01:28.759Z,26.90
2022-12-18T03:04:25.529Z,25.17
2022-12-18T03:06:55.183Z,26.30
2022-12-18T03:09:48.460Z,22.50
2022-12-18T03:12:25.414Z,22.05
2022-12-18T03:15:06.631Z,22.38
2022-12-18T03:17:34.351Z,23.60
2022-12-18T03:20:10.611Z,19.75
2022-12-18T03:22:38.491Z,22.08
2022-12-18T03:25:09.747Z,21.63
2022-12-18T03:27:39.170Z,19.88
2022-12-18T03:30:11.271Z,21.17
2022-12-18T03:32:42.895Z,20.20
2022-12-18T03:37:37.266Z,18.77
2022-12-18T03:40:05.406Z,18.52
2022-12-18T03:42:58.832Z,19.85
2022-12-18T03:45:37.987Z,22.00
2022-12-18T03:48:12.623Z,20.20
2022-12-18T03:50:47.399Z,19.70
2022-12-18T03:53:17.231Z,19.67
2022-12-18T03:55:45.288Z,18.55
2022-12-18T03:58:14.506Z,19.58
2022-12-18T04:00:42.044Z,18.45
2022-12-18T04:03:10.160Z,20.00
2022-12-18T04:05:38.174Z,19.50
2022-12-18T04:08:06.182Z,18.00
2022-12-18T04:10:33.589Z,18.25
2022-12-18T04:13:00.715Z,18.30
2022-12-18T04:15:28.089Z,19.63
2022-12-18T04:17:55.281Z,19.33
2022-12-18T04:20:22.647Z,19.45
2022-12-18T04:22:49.804Z,17.08
2022-12-18T04:25:17.110Z,17.58
2022-12-18T04:27:45.393Z,17.08
2022-12-18T04:30:12.806Z,17.40
2022-12-18T04:32:40.077Z,17.70
2022-12-18T04:35:11.424Z,17.77
2022-12-18T04:37:38.794Z,16.10
2022-12-18T04:40:06.354Z,16.80
2022-12-18T04:42:34.810Z,16.08
2022-12-18T04:45:03.041Z,18.13
2022-12-18T04:47:30.400Z,16.48
2022-12-18T04:49:57.508Z,16.23
2022-12-18T04:52:24.901Z,17.35
2022-12-18T04:54:52.343Z,16.38
2022-12-18T04:57:19.520Z,17.60
2022-12-18T04:59:46.905Z,15.80
2022-12-18T05:02:14.417Z,16.20
2022-12-18T05:04:41.676Z,15.45
2022-12-18T05:07:09.266Z,15.20
2022-12-18T05:09:36.387Z,16.38
2022-12-18T05:12:03.745Z,17.25
2022-12-18T05:14:31.210Z,16.02
2022-12-18T05:17:01.025Z,15.93
2022-12-18T05:19:28.393Z,15.60
2022-12-18T05:21:55.610Z,16.42
2022-12-18T05:24:22.762Z,17.33
2022-12-18T05:26:50.234Z,16.10
2022-12-18T05:29:17.322Z,17.13
2022-12-18T05:31:44.423Z,15.45
2022-12-18T05:34:12.031Z,16.17
2022-12-18T05:36:41.535Z,16.38
2022-12-18T05:39:08.884Z,14.27
2022-12-18T05:41:36.042Z,15.48
2022-12-18T05:44:03.191Z,14.70
2022-12-18T05:46:30.554Z,16.30
2022-12-18T05:49:00.767Z,14.70
2022-12-18T05:51:27.948Z,15.95
2022-12-18T05:53:55.215Z,15.57
2022-12-18T05:56:23.765Z,14.88
2022-12-18T05:58:53.266Z,15.55
2022-12-18T06:01:21.968Z,14.82
2022-12-18T06:03:49.517Z,14.40
2022-12-18T06:06:23.805Z,12.70
2022-12-18T06:08:51.514Z,14.07
2022-12-18T06:11:22.798Z,13.10
2022-12-18T06:13:58.184Z,15.18
2022-12-18T06:16:26.668Z,13.25
2022-12-18T06:18:53.838Z,14.70
2022-12-18T06:21:21.158Z,16.13
2022-12-18T06:23:48.308Z,13.18
2022-12-18T06:26:15.681Z,13.40
2022-12-18T06:28:43.431Z,15.02
2022-12-18T06:31:11.022Z,15.57
2022-12-18T06:33:39.340Z,14.65
2022-12-18T06:36:08.926Z,15.75
2022-12-18T06:38:37.686Z,15.90
2022-12-18T06:41:08.926Z,15.63
2022-12-18T06:43:36.336Z,15.25
2022-12-18T06:46:04.402Z,15.73
2022-12-18T06:48:31.781Z,14.30
2022-12-18T06:50:59.263Z,14.50
2022-12-18T06:53:27.579Z,13.30
2022-12-18T06:55:55.285Z,13.85
2022-12-18T06:58:22.549Z,14.23
2022-12-18T07:00:49.947Z,13.20
2022-12-18T07:03:17.365Z,13.15
2022-12-18T07:05:44.711Z,13.07
2022-12-18T07:08:12.183Z,13.40
2022-12-18T07:10:46.949Z,12.80
2022-12-18T07:13:17.541Z,13.63
2022-12-18T07:15:45.391Z,13.77
2022-12-18T07:18:12.710Z,12.85
2022-12-18T07:20:41.013Z,13.00
2022-12-18T07:23:08.267Z,12.63
2022-12-18T07:25:38.451Z,13.93
2022-12-18T07:28:05.971Z,14.18
2022-12-18T07:30:33.418Z,14.50
2022-12-18T07:33:02.756Z,14.65
2022-12-18T07:35:29.855Z,12.40
2022-12-18T07:37:57.904Z,11.18
2022-12-18T07:40:25.200Z,14.00
2022-12-18T07:42:53.523Z,13.43
2022-12-18T07:45:20.891Z,11.93
2022-12-18T07:47:48.190Z,14.32
2022-12-18T07:50:15.627Z,13.20
2022-12-18T07:52:42.910Z,14.63
2022-12-18T07:55:10.280Z,13.45
2022-12-18T07:58:00.915Z,15.77
2022-12-18T08:00:28.150Z,13.90
2022-12-18T08:02:55.833Z,14.18
2022-12-18T08:05:23.519Z,15.75
2022-12-18T08:07:50.816Z,15.23
2022-12-18T08:10:17.966Z,14.45
2022-12-18T08:12:45.117Z,15.23
2022-12-18T08:15:12.577Z,14.40
2022-12-18T08:17:40.174Z,14.13
2022-12-18T08:20:07.679Z,14.25
2022-12-18T08:22:36.491Z,13.40
2022-12-18T08:25:04.712Z,15.68
2022-12-18T08:27:32.739Z,15.95
2022-12-18T08:30:00.192Z,14.60
2022-12-18T08:32:28.448Z,18.17
2022-12-18T08:34:55.905Z,17.02
2022-12-18T08:37:23.042Z,17.40
2022-12-18T08:39:50.114Z,17.48
2022-12-18T08:42:36.331Z,18.80
2022-12-18T08:45:03.724Z,16.15
2022-12-18T08:47:31.962Z,15.80
2022-12-18T08:49:59.367Z,15.50
2022-12-18T08:52:26.631Z,16.02
2022-12-18T08:54:53.898Z,16.25
2022-12-18T08:57:21.034Z,15.23
2022-12-18T08:59:51.512Z,15.18
2022-12-18T09:02:19.501Z,17.27
2022-12-18T09:04:53.762Z,14.45
2022-12-18T09:07:24.368Z,15.40
2022-12-18T09:09:51.676Z,15.05
2022-12-18T09:12:19.003Z,14.80
2022-12-18T09:14:46.439Z,13.82
2022-12-18T09:17:13.583Z,12.77
2022-12-18T09:19:40.718Z,17.00
2022-12-18T09:22:07.948Z,15.30
2022-12-18T09:24:35.289Z,15.13
2022-12-18T09:27:02.396Z,15.10
2022-12-18T09:29:30.732Z,13.98
2022-12-18T09:31:57.852Z,14.70
2022-12-18T09:34:27.241Z,14.80
2022-12-18T09:36:54.346Z,14.55
2022-12-18T09:39:21.838Z,14.57
2022-12-18T09:41:56.862Z,14.75
2022-12-18T09:44:30.268Z,17.42
2022-12-18T09:46:59.176Z,16.15
2022-12-18T09:49:28.324Z,13.90
2022-12-18T09:51:58.680Z,16.17
2022-12-18T09:55:01.461Z,14.52
2022-12-18T09:57:32.733Z,12.82
2022-12-18T10:00:19.510Z,10.70
2022-12-18T10:02:47.440Z,15.05
2022-12-18T10:05:38.036Z,14.23
2022-12-18T10:08:08.598Z,14.95
2022-12-18T10:10:38.696Z,14.93
2022-12-18T10:13:17.290Z,14.60
2022-12-18T10:15:44.728Z,13.85
2022-12-18T10:18:22.016Z,14.82
2022-12-18T10:21:00.657Z,13.93
2022-12-18T10:23:44.929Z,13.48
2022-12-18T10:26:15.235Z,14.45
2022-12-18T10:28:43.870Z,13.75
2022-12-18T10:31:22.077Z,14.23
2022-12-18T10:33:51.897Z,14.10
2022-12-18T10:36:19.247Z,12.75
2022-12-18T10:38:46.524Z,13.07
2022-12-18T10:41:24.217Z,14.70
2022-12-18T10:44:12.421Z,13.00
2022-12-18T10:46:40.410Z,14.45
2022-12-18T10:49:19.828Z,12.80
2022-12-18T10:51:46.953Z,12.60
2022-12-18T10:54:18.665Z,12.73
2022-12-18T10:59:14.487Z,13.13
2022-12-18T11:01:49.731Z,12.45
2022-12-18T11:04:39.854Z,13.80
2022-12-18T11:07:08.305Z,13.18
2022-12-18T11:09:39.545Z,12.60
2022-12-18T11:12:27.084Z,13.38
2022-12-18T11:14:56.990Z,12.70
2022-12-18T11:17:25.891Z,13.48
2022-12-18T11:19:58.300Z,13.27
2022-12-18T11:22:30.104Z,12.95
2022-12-18T11:25:32.163Z,13.73
2022-12-18T11:27:51.032Z,12.35
2022-12-18T11:30:24.490Z,13.20
2022-12-18T11:32:55.837Z,12.20
2022-12-18T11:35:43.247Z,14.00
2022-12-18T11:38:13.441Z,12.52
2022-12-18T11:40:43.730Z,12.27
2022-12-18T11:43:20.487Z,12.40
2022-12-18T11:45:52.688Z,12.55
2022-12-18T11:48:24.238Z,13.25
2022-12-18T11:53:19.804Z,11.30
2022-12-18T11:55:46.953Z,11.95
2022-12-18T11:58:14.028Z,13.07
2022-12-18T12:00:47.248Z,12.15
2022-12-18T12:03:20.452Z,12.25
2022-12-18T12:05:53.413Z,12.38
2022-12-18T12:08:33.255Z,11.98
2022-12-18T12:11:03.988Z,11.93
2022-12-18T12:13:39.631Z,12.93
2022-12-18T12:16:23.661Z,11.15
2022-12-18T12:18:50.978Z,13.07
2022-12-18T12:21:18.596Z,12.50
2022-12-18T12:23:54.903Z,11.60
2022-12-18T12:26:30.280Z,11.15
2022-12-18T12:29:03.779Z,11.38
2022-12-18T12:31:34.249Z,11.68
2022-12-18T12:34:18.222Z,11.93
2022-12-18T12:36:54.697Z,10.52
2022-12-18T12:39:24.736Z,11.63
2022-12-18T12:42:10.830Z,13.32
2022-12-18T12:44:41.569Z,12.85
2022-12-18T12:47:23.504Z,12.20
2022-12-18T12:49:51.631Z,11.75
2022-12-18T12:52:38.537Z,12.23
2022-12-18T12:55:11.509Z,12.13
2022-12-18T12:57:43.989Z,12.07
2022-12-18T13:00:12.785Z,12.05
2022-12-18T13:02:58.600Z,11.70
2022-12-18T13:05:40.941Z,12.30
2022-12-18T13:08:10.477Z,12.07
2022-12-18T13:10:39.688Z,11.93
2022-12-18T13:13:09.194Z,13.30
2022-12-18T13:15:42.824Z,11.90
2022-12-18T13:18:10.227Z,13.35
2022-12-18T13:20:55.161Z,11.57
2022-12-18T13:23:29.254Z,11.07
2022-12-18T13:26:01.203Z,10.52
2022-12-18T13:28:50.092Z,11.65
2022-12-18T13:31:36.011Z,11.82
2022-12-18T13:34:27.564Z,11.98
2022-12-18T13:37:16.990Z,12.27
2022-12-18T13:39:47.718Z,10.20
2022-12-18T13:42:35.188Z,10.57
2022-12-18T13:45:04.574Z,11.10
2022-12-18T13:47:36.502Z,10.55
2022-12-18T13:50:11.021Z,10.90
2022-12-18T13:52:40.901Z,11.45
2022-12-18T13:55:09.363Z,10.57
2022-12-18T13:57:41.983Z,11.15
2022-12-18T14:00:24.483Z,12.20
2022-12-18T14:02:52.206Z,11.35
2022-12-18T14:05:25.464Z,9.38
2022-12-18T14:07:54.613Z,11.45
2022-12-18T14:10:47.909Z,10.70
2022-12-18T14:13:12.276Z,10.82
2022-12-18T14:15:44.608Z,12.05
2022-12-18T14:18:22.376Z,11.00
2022-12-18T14:20:52.868Z,18.13
2022-12-18T14:23:32.064Z,13.88
2022-12-18T14:26:05.111Z,12.68
2022-12-18T14:28:33.305Z,11.77
2022-12-18T14:31:00.836Z,17.05
2022-12-18T14:33:28.943Z,11.52
2022-12-18T14:36:01.634Z,11.10
2022-12-18T14:38:28.996Z,13.05
2022-12-18T14:40:57.728Z,12.27
2022-12-18T14:43:24.979Z,11.23
2022-12-18T14:45:52.749Z,13.50
2022-12-18T14:48:23.184Z,15.77
2022-12-18T14:50:58.901Z,17.35
2022-12-18T14:53:33.413Z,12.73
2022-12-18T14:56:01.432Z,12.85
2022-12-18T14:58:28.790Z,13.05
2022-12-18T15:00:56.528Z,12.60
2022-12-18T15:03:24.160Z,10.60
2022-12-18T15:05:52.680Z,11.68
2022-12-18T15:08:38.336Z,12.18
2022-12-18T15:11:25.769Z,12.63
2022-12-18T15:13:53.374Z,12.43
2022-12-18T15:16:20.703Z,11.93
2022-12-18T15:18:48.982Z,12.60
2022-12-18T15:21:19.239Z,11.70
2022-12-18T15:23:46.332Z,11.68
2022-12-18T15:26:15.812Z,11.35
2022-12-18T15:28:50.954Z,12.32
2022-12-18T15:31:18.362Z,11.27
2022-12-18T15:33:53.405Z,11.93
2022-12-18T15:36:26.533Z,11.75
2022-12-18T15:38:55.173Z,13.35
2022-12-18T15:41:28.171Z,11.55
2022-12-18T15:43:55.537Z,12.38
2022-12-18T15:46:27.604Z,12.10
2022-12-18T15:49:02.264Z,10.77
2022-12-18T15:51:39.697Z,11.35
2022-12-18T15:54:08.391Z,12.40
2022-12-18T15:56:54.525Z,13.57
2022-12-18T15:59:24.594Z,12.20
2022-12-18T16:01:56.131Z,10.27
2022-12-18T16:04:25.763Z,13.57
2022-12-18T16:09:40.304Z,12.23
2022-12-18T16:12:15.645Z,14.27
2022-12-18T16:14:42.999Z,13.07
2022-12-18T16:17:11.617Z,14.63
2022-12-18T16:19:38.968Z,13.27
2022-12-18T16:22:06.288Z,11.68
2022-12-18T16:24:37.132Z,14.20
2022-12-18T16:27:05.376Z,13.80
2022-12-18T16:29:32.692Z,13.63
2022-12-18T16:32:00.846Z,13.65
2022-12-18T16:34:29.276Z,14.13
2022-12-18T16:37:05.131Z,12.27
2022-12-18T16:39:34.133Z,11.77
2022-12-18T16:42:04.840Z,11.55
2022-12-18T16:44:34.103Z,12.32
2022-12-18T16:47:03.176Z,13.20
2022-12-18T16:49:30.628Z,13.88
2022-12-18T16:51:58.015Z,12.43
2022-12-18T16:54:25.232Z,11.88
2022-12-18T16:56:52.961Z,14.15
2022-12-18T16:59:20.336Z,14.95
2022-12-18T17:01:48.205Z,13.00
2022-12-18T17:04:15.819Z,14.05
2022-12-18T17:06:44.436Z,14.40
2022-12-18T17:09:25.464Z,11.95
2022-12-18T17:11:53.212Z,14.38
2022-12-18T17:14:21.418Z,13.40
2022-12-18T17:17:07.212Z,13.95
2022-12-18T17:19:36.714Z,11.32
2022-12-18T17:22:05.102Z,13.43
2022-12-18T17:24:35.138Z,14.05
2022-12-18T17:27:04.230Z,14.55
2022-12-18T17:29:32.648Z,12.88
2022-12-18T17:32:00.317Z,12.63
2022-12-18T17:34:28.271Z,13.35
2022-12-18T17:36:56.233Z,13.52
2022-12-18T17:39:23.570Z,13.55
2022-12-18T17:41:50.706Z,13.45
2022-12-18T17:44:18.200Z,17.98
2022-12-18T17:46:47.289Z,13.20
2022-12-18T17:49:14.695Z,14.20
2022-12-18T17:51:43.061Z,15.23
2022-12-18T17:54:11.004Z,15.80
2022-12-18T17:56:38.854Z,15.65
2022-12-18T17:59:07.139Z,14.70
2022-12-18T18:01:37.320Z,13.77
2022-12-18T18:04:08.252Z,13.70
2022-12-18T18:06:39.100Z,20.73
2022-12-18T18:09:08.653Z,18.08
2022-12-18T18:12:02.714Z,18.27
2022-12-18T18:14:31.147Z,14.98
2022-12-18T18:17:00.787Z,15.80
2022-12-18T18:19:32.664Z,17.30
2022-12-18T18:21:59.913Z,16.50
2022-12-18T18:24:27.781Z,15.55
2022-12-18T18:27:00.089Z,14.45
2022-12-18T18:29:28.986Z,16.70
2022-12-18T18:31:57.041Z,16.85
2022-12-18T18:34:26.508Z,14.05
2022-12-18T18:36:53.669Z,14.07
2022-12-18T18:39:21.199Z,15.88
2022-12-18T18:41:48.850Z,17.73
2022-12-18T18:44:16.554Z,14.90
2022-12-18T18:46:43.647Z,20.33
2022-12-18T18:49:11.553Z,20.67
2022-12-18T18:51:38.692Z,21.20
2022-12-18T18:54:06.053Z,19.35
2022-12-18T18:57:11.691Z,22.00
2022-12-18T18:59:22.349Z,19.92
2022-12-18T19:01:57.390Z,19.08
2022-12-18T19:04:24.690Z,15.50
2022-12-18T19:06:52.063Z,18.35
2022-12-18T19:09:19.878Z,20.40
2022-12-18T19:12:06.337Z,17.40
2022-12-18T19:14:33.809Z,19.52
2022-12-18T19:17:01.235Z,17.52
2022-12-18T19:19:29.692Z,18.58
2022-12-18T19:21:57.076Z,16.88
2022-12-18T19:24:25.383Z,18.60
2022-12-18T19:26:56.402Z,15.80
2022-12-18T19:29:25.932Z,19.83
2022-12-18T19:31:53.492Z,17.50
2022-12-18T19:34:20.935Z,17.92
2022-12-18T19:36:48.309Z,17.80
2022-12-18T19:39:17.065Z,17.33
2022-12-18T19:41:44.672Z,19.05
2022-12-18T19:44:13.361Z,24.17
2022-12-18T19:46:42.298Z,18.65
2022-12-18T19:49:10.473Z,16.65
2022-12-18T19:51:37.806Z,20.25
2022-12-18T19:54:04.980Z,21.58
2022-12-18T19:56:33.386Z,24.75
2022-12-18T19:59:00.821Z,19.83
2022-12-18T20:01:30.417Z,20.38
2022-12-18T20:03:58.824Z,20.05
2022-12-18T20:06:28.797Z,19.98
2022-12-18T20:08:57.992Z,21.10
2022-12-18T20:11:28.041Z,22.88
2022-12-18T20:13:55.092Z,22.27
2022-12-18T20:16:22.383Z,26.13
2022-12-18T20:18:49.539Z,18.08
2022-12-18T20:21:16.903Z,20.05
2022-12-18T20:23:44.460Z,22.65
2022-12-18T20:26:11.814Z,19.58
2022-12-18T20:28:39.273Z,19.77
2022-12-18T20:31:10.334Z,20.05
2022-12-18T20:33:41.426Z,21.10
2022-12-18T20:36:11.339Z,23.10
2022-12-18T20:38:39.567Z,22.25
2022-12-18T20:41:11.963Z,18.70
2022-12-18T20:43:40.097Z,21.90
2022-12-18T20:46:09.706Z,22.92
2022-12-18T20:48:37.620Z,19.63
2022-12-18T20:51:09.378Z,21.15
2022-12-18T20:53:37.080Z,22.02
2022-12-18T20:56:10.089Z,20.10
2022-12-18T20:58:37.540Z,21.52
2022-12-18T21:01:09.323Z,19.85
2022-12-18T21:03:40.428Z,25.02
2022-12-18T21:06:07.845Z,25.45
2022-12-18T21:08:36.241Z,17.38
2022-12-18T21:11:35.512Z,24.30
2022-12-18T21:14:07.527Z,19.95
2022-12-18T21:16:34.879Z,18.08
2022-12-18T21:19:02.382Z,22.52
2022-12-18T21:21:29.837Z,20.08
2022-12-18T21:24:01.724Z,21.55
2022-12-18T21:26:29.093Z,28.33
2022-12-18T21:28:56.975Z,25.30
2022-12-18T21:31:25.167Z,21.05
2022-12-18T21:33:54.604Z,26.45
2022-12-18T21:36:29.109Z,20.20
2022-12-18T21:38:56.735Z,33.38
2022-12-18T21:41:43.620Z,27.90
2022-12-18T21:44:15.209Z,19.52
2022-12-18T21:46:44.104Z,20.05
2022-12-18T21:49:11.905Z,22.08
2022-12-18T21:51:39.420Z,21.83
2022-12-18T21:54:06.523Z,25.05
2022-12-18T21:56:49.121Z,19.02
2022-12-18T21:59:17.745Z,26.30
2022-12-18T22:01:45.709Z,22.83
2022-12-18T22:04:12.991Z,19.65
2022-12-18T22:06:41.624Z,24.35
2022-12-18T22:09:10.789Z,26.42
2022-12-18T22:11:38.319Z,25.00
2022-12-18T22:14:05.651Z,21.15
2022-12-18T22:16:35.108Z,21.60
2022-12-18T22:19:06.285Z,18.92
2022-12-18T22:21:34.788Z,19.63
2022-12-18T22:24:03.183Z,27.42
2022-12-18T22:26:37.867Z,20.77
2022-12-18T22:29:26.486Z,23.73
2022-12-18T22:31:55.842Z,21.00
2022-12-18T22:34:23.469Z,26.83
2022-12-18T22:36:51.510Z,20.70
2022-12-18T22:39:25.724Z,20.17
2022-12-18T22:41:54.364Z,24.65
2022-12-18T22:44:22.078Z,20.10
2022-12-18T22:46:56.207Z,19.15
2022-12-18T22:49:33.192Z,21.58
2022-12-18T22:52:02.313Z,20.67
2022-12-18T22:54:29.728Z,21.17
2022-12-18T22:56:58.000Z,20.70
2022-12-18T22:59:25.518Z,23.65
2022-12-18T23:01:57.967Z,27.65
2022-12-18T23:04:32.966Z,23.00
2022-12-18T23:07:05.495Z,22.27
2022-12-18T23:09:33.005Z,17.73
2022-12-18T23:12:00.573Z,18.90
2022-12-18T23:14:28.575Z,20.75
2022-12-18T23:16:56.471Z,14.77
2022-12-18T23:19:23.917Z,18.88
2022-12-18T23:21:51.529Z,18.52
2022-12-18T23:24:19.059Z,20.63
2022-12-18T23:26:46.419Z,20.33
2022-12-18T23:29:13.658Z,25.08
2022-12-18T23:31:41.058Z,23.45
2022-12-18T23:34:08.933Z,21.52
2022-12-18T23:36:45.227Z,22.55
2022-12-18T23:39:15.495Z,26.75
2022-12-18T23:41:56.871Z,33.70
2022-12-18T23:44:24.274Z,16.70
2022-12-18T23:46:51.649Z,23.83
2022-12-18T23:49:21.380Z,23.35
2022-12-18T23:51:49.074Z,26.85
2022-12-18T23:54:16.510Z,19.13
2022-12-18T23:56:43.835Z,34.35
2022-12-18T23:59:11.137Z,22.52
